Other Surface Observations
Issued by NWS Missoula, MT

Home | Current Version | Previous Version | Text Only | Print | Product List | Glossary On
Versions: 1 2 3 4 5 6 7 8 9 10 11 12 13 14 15 16 17 18 19 20 21 22 23 24 25 26 27 28 29 30 31 32 33 34 35 36 37 38 39 40 41 42 43 44 45 46 47 48 49 50
000
SXUS55 KMSO 231423
OSOMSO
MONTANA AWOS SUMMARY
NATIONAL WEATHER SERVICE MISSOULA MT
822 AM MDT SAT MAY 23 2015

Montana AWOS Reports

ROUNDUP     |KRPX 231415Z AUTO 02004KT 40SM 12/07 A2993 RMK AO1 T01170072
LAUREL      |K6S8 231415Z AUTO 00000KT 40SM 12/06 A2998 RMK AO1 T01170061
TWIN BRIDGES|K7S1 231415Z AUTO 34014G20KT 40SM 12/05 A2997 RMK AO1 T01220050
MALTA       |KM75 231415Z AUTO 04006KT 40SM 13/07 A3003 RMK AO1 T01330067




USA.gov is the U.S. government's official web portal to all federal, state and local government web resources and services.